Flight Track Log - Related Links

Times and Time Zones

All times are in EDT time to prevent confusion due to time zone crossing. See the SWA193 flight status page for this flight to view local times or setup timezone preferences in your user account.

Time Position Orientation Groundspeed Altitude Reporting Facility
EDT Latitude Longitude Course Direction KTS MPH feet Rate Location/Type
Thu 07:40:27 AM 26.0747 -80.1414 81° East 161 185 700  Level Miami Center
Thu 07:41:28 AM 26.0822 -80.0861 81° East 207 238 2,900 2,672 Climbing Miami Center
Thu 07:42:35 AM 26.0947 -80.0008 81° East 257 296 6,400 3,206 Climbing Miami Center
Thu 07:43:39 AM 26.1358 -79.9278 58° Northeast 299 344 9,900 3,532 Climbing Miami Center
Thu 07:44:39 AM 26.1814 -79.8503 57° Northeast 299 344 13,700 2,600 Climbing Miami Center
Thu 07:45:39 AM 26.2375 -79.7589 56° Northeast 317 365 15,100 2,100 Climbing Miami Center
Thu 07:46:39 AM 26.3044 -79.6425 57° Northeast 384 442 17,900 2,700 Climbing Miami Center
Thu 07:47:39 AM 26.3669 -79.5372 56° Northeast 416 479 20,500 2,650 Climbing Miami Center
Thu 07:48:39 AM 26.4381 -79.4183 56° Northeast 441 507 23,200 2,400 Climbing Miami Center
Thu 07:49:39 AM 26.5092 -79.3014 56° Northeast 447 514 25,300 1,900 Climbing Miami Center
Thu 07:50:39 AM 26.5800 -79.1867 55° Northeast 469 540 27,000 1,950 Climbing Miami Center
Thu 07:51:39 AM 26.6733 -79.0817 45° Northeast 480 552 29,200 2,100 Climbing Miami Center
Thu 07:52:39 AM 26.7975 -79.0328 19° North 462 532 31,200 1,950 Climbing Miami Center
Thu 07:53:39 AM 26.9233 -78.9839 19° North 455 524 33,100 2,000 Climbing Miami Center
Thu 07:54:39 AM 27.0514 -78.9394 17° North 470 541 35,200 2,500 Climbing Miami Center
Thu 07:55:39 AM 27.1839 -78.8811 21° North 468 539 38,100 2,300 Climbing Miami Center
Thu 07:56:39 AM 27.3014 -78.8386 18° North 456 525 39,800 1,350 Climbing Miami Center
Thu 07:57:39 AM 27.4189 -78.7964 18° North 445 512 40,800 600 Climbing Miami Center
Thu 07:58:39 AM 27.5236 -78.7817 North 434 499 41,000 100 Climbing Miami Center
Thu 07:59:39 AM 27.6575 -78.7606 North 426 490 41,000  Level Miami Center
Thu 08:00:39 AM 27.7767 -78.7436 North 431 496 41,000  Level Miami Center
Thu 08:01:39 AM 27.8731 -78.7289 North 426 490 41,000  Level Miami Center
Thu 08:02:39 AM 28.0131 -78.7100 North 419 482 41,000  Level Miami Center
Thu 08:03:39 AM 28.1344 -78.6908 North 430 495 41,000  Level Miami Center
Thu 08:04:39 AM 28.2536 -78.6739 North 430 495 41,000  Level Miami Center
Thu 08:05:39 AM 28.3625 -78.6592 North 439 505 41,000  Level Miami Center
Thu 08:06:39 AM 28.4858 -78.6397 North 439 505 41,000  Level Miami Center
Thu 08:07:39 AM 28.6050 -78.6228 North 439 505 41,000  Level Miami Center
Thu 08:08:39 AM 28.7242 -78.6033 North 428 493 41,000  Level Miami Center
Thu 08:09:39 AM 28.8475 -78.5861 North 428 493 41,000  Level Miami Center
Thu 08:10:39 AM 28.9708 -78.5692 North 433 498 41,000  Level Miami Center
Thu 08:11:39 AM 29.0878 -78.5519 North 433 498 41,000  Level Miami Center
Thu 08:12:39 AM 29.2050 -78.5300 North 428 493 41,000  Level Miami Center
Thu 08:13:39 AM 29.3283 -78.5128 North 423 487 41,000  Level Miami Center
Thu 08:15:55 AM 29.6072 -78.4642 North 438 504 41,000  Level Jacksonville Center
Thu 08:16:55 AM 29.7300 -78.4492 North 443 510 41,000  Level Jacksonville Center
Thu 08:17:55 AM 29.8525 -78.4317 North 443 510 41,000  Level Jacksonville Center
Thu 08:18:55 AM 29.9769 -78.4139 North 443 510 41,000  Level Jacksonville Center
Thu 08:19:55 AM 30.0953 -78.3917 North 443 510 41,000  Level Jacksonville Center
Thu 08:20:55 AM 30.2333 -78.3467 16° North 452 520 41,000  Level Jacksonville Center
Thu 08:21:55 AM 30.3492 -78.3122 14° North 439 505 41,000  Level Jacksonville Center
Thu 08:22:55 AM 30.4728 -78.2678 17° North 442 509 41,000  Level Jacksonville Center
Thu 08:23:55 AM 30.5758 -78.2289 18° North 442 509 41,000  Level Jacksonville Center
Thu 08:24:55 AM 30.6953 -78.1894 16° North 442 509 41,000  Level Jacksonville Center
Thu 08:25:55 AM 30.8233 -78.1514 14° North 436 502 41,000  Level Jacksonville Center
Thu 08:26:55 AM 30.9428 -78.1117 16° North 435 501 41,000  Level Jacksonville Center
Thu 08:27:55 AM 31.0497 -78.0650 20° North 435 501 41,000  Level Jacksonville Center
Thu 08:28:55 AM 31.1694 -78.0297 14° North 435 501 41,000  Level Jacksonville Center
Thu 08:29:55 AM 31.2867 -77.9872 17° North 435 501 41,000  Level Jacksonville Center
Thu 08:30:55 AM 31.4019 -77.9469 17° North 435 501 41,000  Level Jacksonville Center
Thu 08:31:55 AM 31.5217 -77.9114 14° North 435 501 41,000  Level Jacksonville Center
Thu 08:32:55 AM 31.6411 -77.8686 17° North 435 501 41,000  Level Jacksonville Center
Thu 08:33:55 AM 31.7603 -77.8228 18° North 435 501 41,000  Level Jacksonville Center
Thu 08:34:55 AM 31.8797 -77.7822 16° North 435 501 41,000  Level Jacksonville Center
Thu 08:35:55 AM 31.9992 -77.7411 16° North 435 501 41,000  Level Jacksonville Center
Thu 08:36:55 AM 32.1186 -77.7025 15° North 435 501 41,000  Level Jacksonville Center
Thu 08:37:55 AM 32.2400 -77.6589 17° North 440 506 41,000  Level Jacksonville Center
Thu 08:38:55 AM 32.3594 -77.6200 15° North 440 506 41,000  Level Jacksonville Center
Thu 08:39:55 AM 32.4786 -77.5739 18° North 440 506 41,000  Level Jacksonville Center
Thu 08:40:55 AM 32.5978 -77.5322 16° North 440 506 41,000  Level Jacksonville Center
Thu 08:41:55 AM 32.7128 -77.4908 17° North 440 506 41,000  Level Jacksonville Center
Thu 08:42:55 AM 32.8322 -77.4492 16° North 435 501 41,000  Level Jacksonville Center
Thu 08:43:55 AM 32.9494 -77.4100 16° North 435 501 41,000  Level Jacksonville Center
Thu 08:45:11 AM 33.0992 -77.3539 17° North 454 522 41,000  Level Washington Center
Thu 08:46:11 AM 33.2167 -77.3117 17° North 447 514 41,000  Level Washington Center
Thu 08:47:11 AM 33.3361 -77.2694 16° North 442 509 41,000  Level Washington Center
Thu 08:48:11 AM 33.4514 -77.2269 17° North 442 509 41,000  Level Washington Center
Thu 08:49:11 AM 33.5814 -77.1822 16° North 437 503 41,000  Level Washington Center
Thu 08:50:11 AM 33.6986 -77.1369 18° North 442 509 41,000  Level Washington Center
Thu 08:51:11 AM 33.8161 -77.0992 15° North 437 503 41,000  Level Washington Center
Thu 08:52:11 AM 33.9356 -77.0514 18° North 443 510 41,000  Level Washington Center
Thu 08:53:11 AM 34.0528 -77.0108 16° North 443 510 41,000  Level Washington Center
Thu 08:54:11 AM 34.1703 -76.9675 17° North 443 510 41,000  Level Washington Center
Thu 08:55:11 AM 34.2897 -76.9244 17° North 443 510 41,000  Level Washington Center
Thu 08:56:11 AM 34.4089 -76.8783 18° North 443 510 41,000  Level Washington Center
Thu 08:57:11 AM 34.5283 -76.8375 16° North 443 510 41,000  Level Washington Center
Thu 08:58:11 AM 34.6456 -76.7914 18° North 443 510 41,000  Level Washington Center
Thu 08:59:11 AM 34.7650 -76.7475 17° North 443 510 41,000  Level Washington Center
Thu 09:00:11 AM 34.8844 -76.7061 16° North 443 510 41,000  Level Washington Center
Thu 09:01:11 AM 35.0036 -76.6597 18° North 443 510 41,000  Level Washington Center
Thu 09:02:11 AM 35.1250 -76.6131 17° North 443 510 41,000  Level Washington Center
Thu 09:03:11 AM 35.2444 -76.5686 17° North 443 510 41,000  Level Washington Center
Thu 09:04:11 AM 35.3636 -76.5242 17° North 443 510 41,000  Level Washington Center
Thu 09:05:11 AM 35.4725 -76.4772 19° North 443 510 41,000  Level Washington Center
Thu 09:06:11 AM 35.5917 -76.4350 16° North 443 510 41,000  Level Washington Center
Thu 09:07:11 AM 35.7131 -76.3875 18° North 443 510 41,000  Level Washington Center
Thu 09:08:11 AM 35.8325 -76.3403 18° North 443 510 41,000  Level Washington Center
Thu 09:09:11 AM 35.9494 -76.2950 17° North 443 510 41,000  Level Washington Center
Thu 09:10:11 AM 36.0708 -76.2525 16° North 443 510 41,000  Level Washington Center
Thu 09:11:11 AM 36.1900 -76.2044 18° North 443 510 41,000  Level Washington Center
Thu 09:12:11 AM 36.3092 -76.1592 17° North 443 510 41,000  Level Washington Center
Thu 09:13:11 AM 36.4325 -76.1133 17° North 443 510 41,000  Level Washington Center
Thu 09:14:11 AM 36.5494 -76.0678 17° North 443 510 41,000  Level Washington Center
Thu 09:15:11 AM 36.6644 -76.0192 19° North 443 510 41,000  Level Washington Center
Thu 09:16:11 AM 36.7981 -75.9681 17° North 448 516 41,000  Level Washington Center
Thu 09:17:11 AM 36.9128 -75.9219 18° North 442 509 41,000  Level Washington Center
Thu 09:18:11 AM 37.0403 -75.8756 16° North 453 521 41,000  Level Washington Center
Thu 09:19:11 AM 37.1550 -75.8292 18° North 447 514 41,000  Level Washington Center
Thu 09:20:11 AM 37.2719 -75.7850 17° North 441 507 41,000  Level Washington Center
Thu 09:21:11 AM 37.3908 -75.7383 17° North 441 507 41,000  Level Washington Center
Thu 09:22:11 AM 37.5100 -75.6886 18° North 441 507 41,000  Level Washington Center
Thu 09:23:11 AM 37.6308 -75.6417 17° North 441 507 41,000  Level Washington Center
Thu 09:24:11 AM 37.7497 -75.5917 18° North 441 507 41,000  Level Washington Center
Thu 09:25:11 AM 37.8708 -75.5444 17° North 441 507 41,000  Level Washington Center
Thu 09:26:11 AM 37.9894 -75.4917 19° North 441 507 41,000  Level Washington Center
Thu 09:27:11 AM 38.1042 -75.4361 21° North 441 507 41,000  Level Washington Center
Thu 09:28:11 AM 38.2147 -75.3697 25° Northeast 441 507 41,000 -250 Level Washington Center
Thu 09:29:11 AM 38.3000 -75.3139 27° Northeast 436 502 40,500 -800 Descending Washington Center
Thu 09:30:11 AM 38.4167 -75.2367 27° Northeast 425 489 39,400 -750 Descending Washington Center
Thu 09:31:11 AM 38.5206 -75.1592 30° Northeast 425 489 39,000 -200 Descending Washington Center
Thu 09:32:11 AM 38.6181 -75.0761 34° Northeast 430 495 39,000  Level Washington Center
Thu 09:33:11 AM 38.7136 -74.9744 40° Northeast 430 495 39,000  Level Washington Center
Thu 09:34:11 AM 38.8047 -74.8778 40° Northeast 430 495 39,000 -350 Level Washington Center
Thu 09:35:11 AM 38.9022 -74.7833 37° Northeast 430 495 38,300 -850 Descending Washington Center
Thu 09:36:11 AM 38.9953 -74.6889 38° Northeast 435 501 37,300 -1,550 Descending Washington Center
Thu 09:37:11 AM 39.0883 -74.5914 39° Northeast 435 501 35,200 -2,479 Descending Washington Center
Thu 09:38:12 AM 39.1833 -74.4967 38° Northeast 457 526 32,300 -2,218 Descending New York Center
Thu 09:39:10 AM 39.2803 -74.3944 39° Northeast 469 540 30,800 -2,542 Descending New York Center
Thu 09:40:10 AM 39.3817 -74.2894 39° Northeast 464 534 27,300 -3,223 Descending New York Center
Thu 09:41:11 AM 39.4742 -74.1919 39° Northeast 452 520 24,300 -2,132 Descending New York Center
Thu 09:42:11 AM 39.5506 -74.0689 51° Northeast 445 512 23,000 -992 Descending New York Center
Thu 09:43:12 AM 39.6006 -73.9178 67° East 431 496 22,300 -1,627 Descending New York Center
Thu 09:44:09 AM 39.6503 -73.7717 66° East 436 502 19,800 -2,492 Descending New York Center
Thu 09:45:10 AM 39.7181 -73.6506 54° Northeast 427 491 17,400 -2,182 Descending New York Center
Thu 09:46:10 AM 39.8100 -73.5569 38° Northeast 414 476 15,400 -2,350 Descending New York Center
Thu 09:47:10 AM 39.8994 -73.4658 38° Northeast 404 465 12,700 -2,182 Descending New York Center
Thu 09:48:11 AM 39.9892 -73.3692 40° Northeast 391 450 11,000 -910 Descending New York Center
Thu 09:51:14 AM 40.2353 -73.1086 39° Northeast 390 449 9,000 -492 Descending Boston Center
Thu 09:52:15 AM 40.3150 -73.0253 39° Northeast 373 429 9,000 -718 Level Boston Center
Thu 09:54:43 AM 40.5167 -72.8000 40° Northeast 328 377 6,500 -1,218 Descending New York TRACON
Thu 09:55:37 AM 40.5833 -72.8333 339° North 294 338 4,900 -1,316 Descending New York TRACON
Thu 09:56:37 AM 40.6333 -72.9167 308° West 290 334 4,000 -1,150 Descending New York TRACON
Thu 09:57:37 AM 40.6667 -73.0167 294° West 276 318 2,600 -1,000 Descending New York TRACON
Thu 09:58:37 AM 40.7000 -73.1000 298° West 258 297 2,000 -368 Descending New York TRACON
Thu 09:59:31 AM 40.7167 -73.1500 294° West 209 241 1,900 -111 Descending New York TRACON

Login

Don't have an account? Register now (free) for customized features, flight alerts, and more!